createdAt,value
2018-05-15T00:02:17.779Z,99891.08
2018-05-15T00:04:46.273Z,99892.30
2018-05-15T00:07:14.988Z,99890.70
2018-05-15T00:09:43.337Z,99894.55
2018-05-15T00:12:11.753Z,99898.38
2018-05-15T00:14:40.107Z,99900.34
2018-05-15T00:17:08.414Z,99895.17
2018-05-15T00:19:36.877Z,99891.78
2018-05-15T00:22:05.209Z,99892.56
2018-05-15T00:24:33.708Z,99894.35
2018-05-15T00:27:02.026Z,99887.84
2018-05-15T00:29:30.338Z,99886.15
2018-05-15T00:31:58.696Z,99889.30
2018-05-15T00:34:27.029Z,99888.05
2018-05-15T00:36:55.376Z,99891.14
2018-05-15T00:39:23.709Z,99892.99
2018-05-15T00:41:52.055Z,99894.34
2018-05-15T00:44:20.503Z,99895.81
2018-05-15T00:46:48.781Z,99898.38
2018-05-15T00:49:17.136Z,99891.61
2018-05-15T00:51:45.485Z,99893.30
2018-05-15T00:54:13.817Z,99886.86
2018-05-15T00:56:42.185Z,99889.31
2018-05-15T00:59:10.588Z,99882.80
2018-05-15T01:01:38.914Z,99882.77
2018-05-15T01:04:08.237Z,99884.90
2018-05-15T01:06:36.551Z,99881.20
2018-05-15T01:09:04.898Z,99883.55
2018-05-15T01:11:33.292Z,99877.12
2018-05-15T01:14:01.622Z,99873.89
2018-05-15T01:16:29.947Z,99880.64
2018-05-15T01:18:58.284Z,99875.53
2018-05-15T01:21:26.624Z,99881.37
2018-05-15T01:23:54.955Z,99875.38
2018-05-15T01:26:23.329Z,99883.32
2018-05-15T01:28:51.728Z,99882.61
2018-05-15T01:31:20.066Z,99884.62
2018-05-15T01:33:48.408Z,99877.60
2018-05-15T01:36:16.738Z,99878.23
2018-05-15T01:38:45.089Z,99877.48
2018-05-15T01:41:13.412Z,99877.25
2018-05-15T01:43:41.743Z,99877.03
2018-05-15T01:46:10.084Z,99876.29
2018-05-15T01:48:38.408Z,99873.89
2018-05-15T01:51:06.752Z,99873.49
2018-05-15T01:53:35.075Z,99863.19
2018-05-15T01:56:03.414Z,99871.41
2018-05-15T01:58:31.726Z,99867.16
2018-05-15T02:01:00.149Z,99874.59
2018-05-15T02:03:28.472Z,99870.67
2018-05-15T02:05:56.828Z,99867.01
2018-05-15T02:08:25.132Z,99870.75
2018-05-15T02:10:53.478Z,99873.08
2018-05-15T02:13:21.866Z,99885.69
2018-05-15T02:15:50.204Z,99880.80
2018-05-15T02:18:18.519Z,99877.47
2018-05-15T02:20:46.925Z,99874.03
2018-05-15T02:23:15.350Z,99871.95
2018-05-15T02:25:43.684Z,99879.53
2018-05-15T02:28:12.013Z,99886.42
2018-05-15T02:30:40.460Z,99882.00
2018-05-15T02:33:08.787Z,99887.25
2018-05-15T02:35:37.229Z,99879.20
2018-05-15T02:38:05.703Z,99881.81
2018-05-15T02:40:34.094Z,99875.42
2018-05-15T02:43:02.494Z,99879.53
2018-05-15T02:45:30.876Z,99878.77
2018-05-15T02:47:59.208Z,99878.11
2018-05-15T02:50:27.549Z,99879.21
2018-05-15T02:52:55.883Z,99880.36
2018-05-15T02:55:24.207Z,99874.98
2018-05-15T02:57:52.655Z,99872.54
2018-05-15T03:00:21.155Z,99876.33
2018-05-15T03:02:49.537Z,99882.38
2018-05-15T03:05:17.920Z,99881.93
2018-05-15T03:07:46.465Z,99884.09
2018-05-15T03:10:14.904Z,99878.03
2018-05-15T03:12:43.268Z,99881.81
2018-05-15T03:15:11.644Z,99879.17
2018-05-15T03:17:39.969Z,99873.36
2018-05-15T03:20:08.305Z,99879.20
2018-05-15T03:22:36.660Z,99880.39
2018-05-15T03:25:05.029Z,99881.84
2018-05-15T03:27:33.447Z,99878.37
2018-05-15T03:30:01.868Z,99885.27
2018-05-15T03:32:30.252Z,99887.88
2018-05-15T03:34:58.645Z,99893.75
2018-05-15T03:37:26.975Z,99884.75
2018-05-15T03:39:55.325Z,99891.42
2018-05-15T03:42:23.648Z,99887.72
2018-05-15T03:44:51.998Z,99882.75
2018-05-15T03:47:24.978Z,99889.97
2018-05-15T03:49:53.303Z,99893.69
2018-05-15T03:52:22.499Z,99888.63
2018-05-15T03:54:50.850Z,99891.70
2018-05-15T03:57:19.183Z,99888.98
2018-05-15T03:59:47.530Z,99890.65
2018-05-15T04:02:27.879Z,99898.94
2018-05-15T04:05:08.047Z,99904.58
2018-05-15T04:07:48.333Z,99901.66
2018-05-15T04:10:16.736Z,99905.09
2018-05-15T04:12:45.072Z,99906.68
2018-05-15T04:15:13.479Z,99899.58
2018-05-15T04:17:42.016Z,99910.75
2018-05-15T04:20:10.383Z,99913.71
2018-05-15T04:22:38.709Z,99910.16
2018-05-15T04:25:07.066Z,99911.30
2018-05-15T04:27:35.417Z,99910.85
2018-05-15T04:30:03.763Z,99913.02
2018-05-15T04:32:32.109Z,99913.84
2018-05-15T04:35:00.616Z,99913.59
2018-05-15T04:37:28.928Z,99915.70
2018-05-15T04:39:57.274Z,99915.52
2018-05-15T04:42:25.612Z,99911.87
2018-05-15T04:44:53.949Z,99906.27
2018-05-15T04:47:22.300Z,99909.33
2018-05-15T04:49:50.671Z,99905.24
2018-05-15T04:52:18.994Z,99903.16
2018-05-15T04:54:47.352Z,99906.17
2018-05-15T04:57:15.686Z,99908.23
2018-05-15T04:59:44.044Z,99903.89
2018-05-15T05:02:12.453Z,99907.52
2018-05-15T05:04:40.779Z,99910.05
2018-05-15T05:07:09.323Z,99910.37
2018-05-15T05:12:05.382Z,99911.01
2018-05-15T05:14:33.713Z,99916.73
2018-05-15T05:17:02.059Z,99913.34
2018-05-15T05:19:30.467Z,99916.89
2018-05-15T05:21:58.865Z,99911.41
2018-05-15T05:24:27.188Z,99907.80
2018-05-15T05:26:55.641Z,99907.80
2018-05-15T05:29:23.992Z,99909.74
2018-05-15T05:31:52.329Z,99907.66
2018-05-15T05:34:20.738Z,99903.84
2018-05-15T05:36:49.061Z,99904.52
2018-05-15T05:39:17.408Z,99901.34
2018-05-15T05:41:45.737Z,99896.09
2018-05-15T05:44:14.197Z,99900.44
2018-05-15T05:46:42.620Z,99908.19
2018-05-15T05:49:10.956Z,99906.50
2018-05-15T05:51:39.369Z,99902.26
2018-05-15T05:54:07.737Z,99894.97
2018-05-15T05:56:36.072Z,99898.06
2018-05-15T05:59:04.438Z,99891.99
2018-05-15T06:01:32.775Z,99890.89
2018-05-15T06:04:01.224Z,99898.95
2018-05-15T06:06:29.551Z,99897.42
2018-05-15T06:08:57.940Z,99896.67
2018-05-15T06:11:26.306Z,99889.25
2018-05-15T06:13:54.646Z,99886.55
2018-05-15T06:16:23.089Z,99885.55
2018-05-15T06:18:51.471Z,99878.73
2018-05-15T06:21:19.806Z,99863.71
2018-05-15T06:23:48.118Z,99864.41
2018-05-15T06:26:16.449Z,99861.30
2018-05-15T06:28:44.773Z,99862.88
2018-05-15T06:31:13.161Z,99866.52
2018-05-15T06:33:41.498Z,99865.72
2018-05-15T06:36:09.837Z,99865.23
2018-05-15T06:38:38.233Z,99864.51
2018-05-15T06:41:06.555Z,99868.12
2018-05-15T06:43:35.000Z,99859.52
2018-05-15T06:46:03.357Z,99863.00
2018-05-15T06:48:31.688Z,99856.59
2018-05-15T06:51:00.089Z,99849.79
2018-05-15T06:53:28.473Z,99848.82
2018-05-15T06:55:56.805Z,99853.81
2018-05-15T06:58:25.276Z,99848.28
2018-05-15T07:00:53.839Z,99843.50
2018-05-15T07:03:22.350Z,99844.59
2018-05-15T07:05:51.073Z,99839.86
2018-05-15T07:08:19.502Z,99844.30
2018-05-15T07:10:47.932Z,99847.23
2018-05-15T07:13:16.336Z,99848.61
2018-05-15T07:15:44.715Z,99841.52
2018-05-15T07:18:13.068Z,99838.00
2018-05-15T07:20:41.440Z,99832.70
2018-05-15T07:23:09.782Z,99833.94
2018-05-15T07:25:38.113Z,99830.80
2018-05-15T07:28:06.464Z,99830.53
2018-05-15T07:30:35.814Z,99834.02
2018-05-15T07:33:04.237Z,99839.55
2018-05-15T07:35:32.513Z,99831.73
2018-05-15T07:38:00.876Z,99823.92
2018-05-15T07:40:29.195Z,99820.92
2018-05-15T07:42:57.527Z,99820.55
2018-05-15T07:45:25.845Z,99819.73
2018-05-15T07:47:54.169Z,99828.18
2018-05-15T07:50:22.518Z,99834.84
2018-05-15T07:52:50.930Z,99830.64
2018-05-15T07:55:19.388Z,99836.23
2018-05-15T07:57:47.727Z,99833.22
2018-05-15T08:00:16.066Z,99827.78
2018-05-15T08:02:45.787Z,99826.58
2018-05-15T08:05:14.094Z,99832.72
2018-05-15T08:07:42.429Z,99835.02
2018-05-15T08:10:10.791Z,99831.91
2018-05-15T08:12:39.126Z,99836.39
2018-05-15T08:15:07.473Z,99834.30
2018-05-15T08:17:35.846Z,99831.50
2018-05-15T08:20:04.208Z,99830.19
2018-05-15T08:22:32.621Z,99827.98
2018-05-15T08:25:00.897Z,99832.42
2018-05-15T08:27:29.235Z,99828.13
2018-05-15T08:29:57.560Z,99824.32
2018-05-15T08:32:25.912Z,99826.77
2018-05-15T08:34:54.321Z,99819.93
2018-05-15T08:37:22.749Z,99824.09
2018-05-15T08:39:51.059Z,99822.66
2018-05-15T08:42:19.396Z,99829.14
2018-05-15T08:44:47.742Z,99822.78
2018-05-15T08:47:16.078Z,99824.46
2018-05-15T08:49:44.402Z,99834.53
2018-05-15T08:52:12.729Z,99838.50
2018-05-15T08:54:41.073Z,99835.20
2018-05-15T08:57:09.413Z,99831.34
2018-05-15T08:59:37.795Z,99829.65
2018-05-15T09:02:06.227Z,99832.49
2018-05-15T09:04:34.622Z,99828.53
2018-05-15T09:07:02.966Z,99832.80
2018-05-15T09:09:31.294Z,99829.66
2018-05-15T09:11:59.707Z,99837.98
2018-05-15T09:14:28.031Z,99834.80
2018-05-15T09:16:56.449Z,99832.27
2018-05-15T09:19:24.776Z,99833.89
2018-05-15T09:21:53.116Z,99834.33
2018-05-15T09:24:21.461Z,99825.19
2018-05-15T09:26:49.803Z,99825.71
2018-05-15T09:29:18.155Z,99832.20
2018-05-15T09:31:46.505Z,99826.86
2018-05-15T09:34:14.814Z,99822.56
2018-05-15T09:36:43.882Z,99820.25
2018-05-15T09:39:12.263Z,99819.05
2018-05-15T09:41:40.675Z,99827.24
2018-05-15T09:44:08.993Z,99820.30
2018-05-15T09:46:37.476Z,99817.50
2018-05-15T09:49:05.821Z,99812.05
2018-05-15T09:51:34.144Z,99812.93
2018-05-15T09:54:02.583Z,99809.73
2018-05-15T09:56:30.908Z,99809.81
2018-05-15T09:58:59.237Z,99810.39
2018-05-15T10:01:27.602Z,99811.70
2018-05-15T10:03:55.935Z,99808.70
2018-05-15T10:06:24.279Z,99811.37
2018-05-15T10:08:52.606Z,99812.44
2018-05-15T10:11:20.999Z,99813.49
2018-05-15T10:13:49.316Z,99812.28
2018-05-15T10:16:17.685Z,99808.69
2018-05-15T10:18:46.098Z,99812.34
2018-05-15T10:21:14.568Z,99803.68
2018-05-15T10:23:43.253Z,99792.08
2018-05-15T10:26:11.682Z,99798.09
2018-05-15T10:28:40.082Z,99796.30
2018-05-15T10:31:08.407Z,99798.30
2018-05-15T10:33:36.742Z,99792.85
2018-05-15T10:36:05.163Z,99791.28
2018-05-15T10:38:33.481Z,99794.00
2018-05-15T10:41:01.805Z,99792.92
2018-05-15T10:43:30.222Z,99787.45
2018-05-15T10:45:58.558Z,99788.48
2018-05-15T10:48:26.977Z,99784.58
2018-05-15T10:50:55.315Z,99783.28
2018-05-15T10:53:23.700Z,99799.20
2018-05-15T10:55:52.044Z,99827.71
2018-05-15T10:58:20.384Z,99841.27
2018-05-15T11:00:49.152Z,99837.74
2018-05-15T11:03:17.575Z,99837.88
2018-05-15T11:05:45.928Z,99826.95
2018-05-15T11:08:14.365Z,99822.45
2018-05-15T11:10:42.809Z,99823.99
2018-05-15T11:13:11.195Z,99830.28
2018-05-15T11:15:39.539Z,99818.78
2018-05-15T11:18:19.913Z,99809.39
2018-05-15T11:21:02.552Z,99811.42
2018-05-15T11:23:42.835Z,99806.05
2018-05-15T11:26:11.179Z,99807.12
2018-05-15T11:28:39.534Z,99798.78
2018-05-15T11:31:07.879Z,99786.47
2018-05-15T11:33:36.284Z,99785.91
2018-05-15T11:36:04.688Z,99786.30
2018-05-15T11:38:33.153Z,99789.73
2018-05-15T11:41:01.478Z,99796.89
2018-05-15T11:43:29.852Z,99795.80
2018-05-15T11:45:58.177Z,99799.03
2018-05-15T11:48:28.939Z,99800.14
2018-05-15T11:50:59.838Z,99797.31
2018-05-15T11:53:30.687Z,99803.78
2018-05-15T11:55:59.107Z,99800.96
2018-05-15T11:58:27.403Z,99796.29
2018-05-15T12:00:56.526Z,99793.19
2018-05-15T12:03:24.852Z,99794.59
2018-05-15T12:05:53.191Z,99788.05
2018-05-15T12:08:21.679Z,99776.06
2018-05-15T12:10:49.943Z,99789.20
2018-05-15T12:13:18.290Z,99772.00
2018-05-15T12:15:46.745Z,99760.85
2018-05-15T12:18:15.078Z,99761.49
2018-05-15T12:20:43.452Z,99759.67
2018-05-15T12:23:11.786Z,99750.26
2018-05-15T12:25:40.122Z,99751.38
2018-05-15T12:28:08.559Z,99751.41
2018-05-15T12:30:36.851Z,99742.52
2018-05-15T12:33:05.291Z,99745.50
2018-05-15T12:35:33.758Z,99743.94
2018-05-15T12:38:02.093Z,99750.09
2018-05-15T12:40:30.450Z,99741.02
2018-05-15T12:42:58.745Z,99742.58
2018-05-15T12:45:28.050Z,99742.19
2018-05-15T12:47:56.422Z,99737.34
2018-05-15T12:50:24.732Z,99739.16
2018-05-15T12:52:53.186Z,99742.73
2018-05-15T12:55:21.522Z,99733.92
2018-05-15T12:57:49.874Z,99735.52
2018-05-15T13:00:18.360Z,99738.34
2018-05-15T13:02:46.674Z,99737.20
2018-05-15T13:05:15.011Z,99732.80
2018-05-15T13:07:43.357Z,99733.51
2018-05-15T13:10:11.687Z,99736.33
2018-05-15T13:12:42.287Z,99727.77
2018-05-15T13:15:10.606Z,99724.81
2018-05-15T13:17:38.934Z,99725.27
2018-05-15T13:20:07.255Z,99724.03
2018-05-15T13:22:35.569Z,99725.58
2018-05-15T13:25:03.904Z,99724.22
2018-05-15T13:27:32.253Z,99721.06
2018-05-15T13:30:00.675Z,99715.04
2018-05-15T13:32:28.978Z,99712.25
2018-05-15T13:34:57.332Z,99707.42
2018-05-15T13:37:25.764Z,99699.66
2018-05-15T13:39:54.140Z,99700.21
2018-05-15T13:42:22.569Z,99694.89
2018-05-15T13:44:51.037Z,99697.52
2018-05-15T13:47:19.375Z,99688.36
2018-05-15T13:49:47.693Z,99690.09
2018-05-15T13:52:16.115Z,99689.44
2018-05-15T13:54:44.443Z,99685.22
2018-05-15T13:57:12.799Z,99688.80
2018-05-15T13:59:41.831Z,99684.96
2018-05-15T14:02:10.186Z,99682.83
2018-05-15T14:04:38.570Z,99681.08
2018-05-15T14:07:07.017Z,99678.22
2018-05-15T14:09:35.356Z,99683.23
2018-05-15T14:12:03.752Z,99672.04
2018-05-15T14:14:32.081Z,99673.52
2018-05-15T14:17:00.454Z,99673.57
2018-05-15T14:19:28.854Z,99669.33
2018-05-15T14:21:57.249Z,99668.50
2018-05-15T14:24:25.643Z,99669.16
2018-05-15T14:26:54.094Z,99672.44
2018-05-15T14:29:22.452Z,99663.34
2018-05-15T14:31:50.780Z,99667.71
2018-05-15T14:34:19.179Z,99659.55
2018-05-15T14:36:47.504Z,99653.44
2018-05-15T14:39:15.837Z,99664.47
2018-05-15T14:41:56.098Z,99664.13
2018-05-15T14:44:24.541Z,99655.22
2018-05-15T14:46:52.938Z,99651.06
2018-05-15T14:49:21.316Z,99648.61
2018-05-15T14:51:49.727Z,99654.32
2018-05-15T14:54:18.106Z,99653.47
2018-05-15T14:56:46.534Z,99645.95
2018-05-15T14:59:14.989Z,99649.02
2018-05-15T15:01:43.341Z,99640.86
2018-05-15T15:04:11.687Z,99648.28
2018-05-15T15:06:40.074Z,99650.67
2018-05-15T15:09:08.425Z,99649.79
2018-05-15T15:11:36.747Z,99650.30
2018-05-15T15:14:05.139Z,99649.39
2018-05-15T15:16:33.475Z,99645.34
2018-05-15T15:19:01.825Z,99648.97
2018-05-15T15:21:30.187Z,99650.13
2018-05-15T15:23:58.648Z,99643.61
2018-05-15T15:26:27.098Z,99633.90
2018-05-15T15:28:55.471Z,99625.22
2018-05-15T15:31:23.836Z,99619.17
2018-05-15T15:33:54.058Z,99621.48
2018-05-15T15:36:22.400Z,99610.95
2018-05-15T15:38:50.751Z,99606.27
2018-05-15T15:41:19.219Z,99609.67
2018-05-15T15:43:47.858Z,99603.21
2018-05-15T15:46:16.157Z,99614.16
2018-05-15T15:48:44.580Z,99610.20
2018-05-15T15:51:12.921Z,99607.96
2018-05-15T15:53:41.273Z,99608.11
2018-05-15T15:56:09.614Z,99603.86
2018-05-15T15:58:37.961Z,99594.64
2018-05-15T16:01:10.587Z,99593.72
2018-05-15T16:03:40.598Z,99591.02
2018-05-15T16:06:10.170Z,99595.73
2018-05-15T16:08:38.493Z,99592.03
2018-05-15T16:11:06.886Z,99595.86
2018-05-15T16:13:35.288Z,99597.31
2018-05-15T16:16:03.687Z,99601.30
2018-05-15T16:18:32.065Z,99609.98
2018-05-15T16:21:00.401Z,99605.36
2018-05-15T16:23:29.052Z,99603.25
2018-05-15T16:25:57.397Z,99610.16
2018-05-15T16:28:25.753Z,99604.82
2018-05-15T16:30:54.096Z,99609.02
2018-05-15T16:33:22.445Z,99598.97
2018-05-15T16:35:50.795Z,99597.14
2018-05-15T16:38:19.174Z,99589.28
2018-05-15T16:40:48.604Z,99596.42
2018-05-15T16:43:16.927Z,99595.86
2018-05-15T16:45:45.261Z,99593.11
2018-05-15T16:48:13.599Z,99596.91
2018-05-15T16:50:42.020Z,99594.91
2018-05-15T16:53:10.376Z,99593.40
2018-05-15T16:55:38.873Z,99595.34
2018-05-15T16:58:07.268Z,99591.16
2018-05-15T17:00:35.635Z,99593.58
2018-05-15T17:03:04.068Z,99585.16
2018-05-15T17:05:32.446Z,99588.45
2018-05-15T17:08:00.804Z,99589.55
2018-05-15T17:10:29.142Z,99590.75
2018-05-15T17:12:57.470Z,99582.85
2018-05-15T17:15:25.928Z,99582.42
2018-05-15T17:17:54.267Z,99585.41
2018-05-15T17:20:22.618Z,99571.92
2018-05-15T17:22:50.969Z,99573.61
2018-05-15T17:25:19.332Z,99570.14
2018-05-15T17:27:47.835Z,99570.43
2018-05-15T17:30:16.274Z,99574.83
2018-05-15T17:32:44.636Z,99572.44
2018-05-15T17:35:12.973Z,99565.49
2018-05-15T17:37:41.317Z,99572.02
2018-05-15T17:40:09.765Z,99574.34
2018-05-15T17:42:38.372Z,99576.77
2018-05-15T17:45:06.746Z,99583.80
2018-05-15T17:47:35.279Z,99580.45
2018-05-15T17:50:03.631Z,99584.72
2018-05-15T17:52:32.031Z,99581.63
2018-05-15T17:55:00.368Z,99582.53
2018-05-15T17:57:28.779Z,99581.86
2018-05-15T17:59:57.128Z,99580.47
2018-05-15T18:02:25.489Z,99582.48
2018-05-15T18:04:53.828Z,99584.50
2018-05-15T18:07:22.172Z,99587.64
2018-05-15T18:09:50.561Z,99580.97
2018-05-15T18:12:18.917Z,99590.79
2018-05-15T18:14:47.278Z,99587.13
2018-05-15T18:17:15.863Z,99581.99
2018-05-15T18:19:44.205Z,99583.56
2018-05-15T18:22:12.582Z,99585.38
2018-05-15T18:24:41.039Z,99585.80
2018-05-15T18:27:09.372Z,99585.02
2018-05-15T18:29:37.809Z,99584.84
2018-05-15T18:32:06.198Z,99588.70
2018-05-15T18:34:34.596Z,99588.55
2018-05-15T18:37:02.931Z,99591.00
2018-05-15T18:39:31.289Z,99595.95
2018-05-15T18:41:59.660Z,99595.14
2018-05-15T18:44:28.010Z,99587.91
2018-05-15T18:46:56.337Z,99599.09
2018-05-15T18:49:24.716Z,99601.42
2018-05-15T18:51:53.123Z,99612.61
2018-05-15T18:54:21.544Z,99613.56
2018-05-15T18:56:49.929Z,99612.53
2018-05-15T18:59:18.271Z,99620.05
2018-05-15T19:01:46.723Z,99613.19
2018-05-15T19:04:15.081Z,99609.97
2018-05-15T19:06:43.584Z,99612.48
2018-05-15T19:09:11.859Z,99617.03
2018-05-15T19:11:40.194Z,99614.97
2018-05-15T19:14:08.545Z,99616.64
2018-05-15T19:16:36.872Z,99623.39
2018-05-15T19:19:05.250Z,99622.23
2018-05-15T19:21:33.574Z,99617.39
2018-05-15T19:24:01.918Z,99619.94
2018-05-15T19:26:30.241Z,99621.08
2018-05-15T19:28:58.591Z,99617.83
2018-05-15T19:31:32.613Z,99624.67
2018-05-15T19:34:00.966Z,99625.16
2018-05-15T19:36:31.215Z,99627.02
2018-05-15T19:39:05.066Z,99627.50
2018-05-15T19:41:34.305Z,99630.72
2018-05-15T19:44:02.688Z,99627.20
2018-05-15T19:46:31.100Z,99632.66
2018-05-15T19:48:59.403Z,99625.52
2018-05-15T19:51:27.766Z,99625.92
2018-05-15T19:53:56.084Z,99627.45
2018-05-15T19:56:24.397Z,99627.70
2018-05-15T19:58:52.738Z,99633.02
2018-05-15T20:01:21.109Z,99633.19
2018-05-15T20:03:49.455Z,99626.45
2018-05-15T20:06:17.805Z,99622.96
2018-05-15T20:08:46.204Z,99626.30
2018-05-15T20:11:14.576Z,99623.77
2018-05-15T20:13:42.892Z,99620.95
2018-05-15T20:16:11.300Z,99616.42
2018-05-15T20:18:39.580Z,99615.41
2018-05-15T20:21:07.920Z,99611.36
2018-05-15T20:23:36.348Z,99616.12
2018-05-15T20:26:04.760Z,99619.52
2018-05-15T20:28:33.143Z,99617.06
2018-05-15T20:31:01.495Z,99618.57
2018-05-15T20:33:29.969Z,99615.61
2018-05-15T20:35:58.314Z,99617.05
2018-05-15T20:38:26.678Z,99619.17
2018-05-15T20:40:56.004Z,99620.66
2018-05-15T20:43:24.508Z,99624.87
2018-05-15T20:45:52.817Z,99621.42
2018-05-15T20:48:21.197Z,99626.54
2018-05-15T20:50:49.886Z,99632.75
2018-05-15T20:53:18.204Z,99624.61
2018-05-15T20:55:46.587Z,99630.14
2018-05-15T20:58:14.918Z,99641.74
2018-05-15T21:00:43.674Z,99637.77
2018-05-15T21:03:11.939Z,99643.11
2018-05-15T21:05:40.280Z,99639.23
2018-05-15T21:08:08.674Z,99645.80
2018-05-15T21:10:37.218Z,99646.82
2018-05-15T21:13:05.644Z,99645.87
2018-05-15T21:15:33.978Z,99649.52
2018-05-15T21:18:02.367Z,99648.57
2018-05-15T21:20:30.825Z,99647.46
2018-05-15T21:22:59.222Z,99645.88
2018-05-15T21:25:27.529Z,99644.05
2018-05-15T21:27:55.861Z,99643.06
2018-05-15T21:30:24.305Z,99643.03
2018-05-15T21:32:52.637Z,99645.20
2018-05-15T21:35:21.072Z,99637.36
2018-05-15T21:37:49.517Z,99646.75
2018-05-15T21:40:17.905Z,99650.52
2018-05-15T21:42:46.240Z,99652.16
2018-05-15T21:45:14.586Z,99663.94
2018-05-15T21:47:42.910Z,99667.73
2018-05-15T21:50:11.376Z,99666.88
2018-05-15T21:52:39.760Z,99665.89
2018-05-15T21:55:08.138Z,99664.28
2018-05-15T21:57:36.500Z,99666.01
2018-05-15T22:00:04.854Z,99667.45
2018-05-15T22:02:33.153Z,99665.84
2018-05-15T22:05:01.527Z,99666.14
2018-05-15T22:07:29.864Z,99668.10
2018-05-15T22:09:58.201Z,99664.47
2018-05-15T22:12:39.065Z,99662.27
2018-05-15T22:15:19.234Z,99668.38
2018-05-15T22:17:59.421Z,99669.28
2018-05-15T22:20:39.678Z,99667.69
2018-05-15T22:23:07.468Z,99665.78
2018-05-15T22:25:35.810Z,99666.84
2018-05-15T22:28:04.207Z,99671.70
2018-05-15T22:30:32.568Z,99672.45
2018-05-15T22:33:00.894Z,99678.78
2018-05-15T22:35:29.863Z,99673.89
2018-05-15T22:37:58.187Z,99683.14
2018-05-15T22:40:26.526Z,99685.67
2018-05-15T22:42:54.910Z,99684.07
2018-05-15T22:45:23.292Z,99687.52
2018-05-15T22:47:51.769Z,99687.10
2018-05-15T22:50:20.133Z,99690.70
2018-05-15T22:52:48.575Z,99684.18
2018-05-15T22:55:16.911Z,99684.41
2018-05-15T22:57:45.279Z,99687.36
2018-05-15T23:00:13.634Z,99681.76
2018-05-15T23:02:41.991Z,99677.69
2018-05-15T23:05:10.335Z,99674.47
2018-05-15T23:07:38.723Z,99673.72
2018-05-15T23:10:07.072Z,99676.80
2018-05-15T23:12:35.396Z,99672.93
2018-05-15T23:15:03.719Z,99673.55
2018-05-15T23:17:32.041Z,99677.75
2018-05-15T23:20:00.471Z,99675.22
2018-05-15T23:22:40.665Z,99674.66
2018-05-15T23:25:08.980Z,99675.48
2018-05-15T23:27:37.331Z,99669.77
2018-05-15T23:30:05.670Z,99673.77
2018-05-15T23:32:34.028Z,99673.11
2018-05-15T23:35:02.416Z,99670.45
2018-05-15T23:37:30.754Z,99668.95
2018-05-15T23:39:59.080Z,99673.53
2018-05-15T23:42:27.706Z,99673.15
2018-05-15T23:44:56.046Z,99673.47
2018-05-15T23:47:24.390Z,99671.99
2018-05-15T23:49:52.786Z,99667.14
2018-05-15T23:52:21.183Z,99665.50
2018-05-15T23:54:49.777Z,99664.13
2018-05-15T23:57:18.114Z,99656.84
2018-05-15T23:59:46.459Z,99656.03
